Warruwi, Australia
Current Conditions -  °F | °C
As of 4:30 PM on Monday 22 Dec 2014 (Local Time) from YPDN Reporting Station
Broken Clouds Broken Clouds  
Wind Chill: 93°   Ceiling: 30000
Heat Index: 99°   Visibility: 6mi
Dew Point: 70°   Wind: 12mph
Humidity: 46%   Direction: 350°N
Pressure: 29.68"   Gusts: NA
Location:  11.65°S, 133.4°E
Report Text: YPDN 220730Z 35010KT 9999 FEW040 BKN300 34/21 Q1005
Loading
Personal Weather Stations






























Interactive Weather Map New forecast layout! Learn more

10-Day Weather Forecast

Advertisements
Track Severe Weather on mobile